createdAt,value
2023-08-11T00:02:06.696Z,51.08
2023-08-11T00:04:33.503Z,50.36
2023-08-11T00:07:00.399Z,49.94
2023-08-11T00:09:27.830Z,49.68
2023-08-11T00:11:54.688Z,50.47
2023-08-11T00:14:21.536Z,50.38
2023-08-11T00:16:48.583Z,50.45
2023-08-11T00:19:15.478Z,50.79
2023-08-11T00:21:42.675Z,50.76
2023-08-11T00:24:09.584Z,50.55
2023-08-11T00:26:36.453Z,50.83
2023-08-11T00:29:04.122Z,50.89
2023-08-11T00:31:31.067Z,51.17
2023-08-11T00:33:58.110Z,50.88
2023-08-11T00:36:25.369Z,51.07
2023-08-11T00:38:52.303Z,50.96
2023-08-11T00:41:19.333Z,51.52
2023-08-11T00:43:46.285Z,51.64
2023-08-11T00:46:14.587Z,51.40
2023-08-11T00:48:43.490Z,51.84
2023-08-11T00:51:15.817Z,51.39
2023-08-11T00:53:43.146Z,51.87
2023-08-11T00:56:10.140Z,51.66
2023-08-11T00:58:38.902Z,51.93
2023-08-11T01:01:05.961Z,51.16
2023-08-11T01:03:33.200Z,51.68
2023-08-11T01:06:29.393Z,51.61
2023-08-11T01:09:20.753Z,51.75
2023-08-11T01:12:06.279Z,51.67
2023-08-11T01:15:09.807Z,51.98
2023-08-11T01:17:40.179Z,52.15
2023-08-11T01:20:12.018Z,51.99
2023-08-11T01:22:45.762Z,51.96
2023-08-11T01:25:13.584Z,52.13
2023-08-11T01:27:45.504Z,52.07
2023-08-11T01:30:13.494Z,52.29
2023-08-11T01:32:40.657Z,52.26
2023-08-11T01:35:08.031Z,51.99
2023-08-11T01:37:34.922Z,52.79
2023-08-11T01:40:01.806Z,52.65
2023-08-11T01:42:28.755Z,52.56
2023-08-11T01:44:57.006Z,52.73
2023-08-11T01:47:25.862Z,52.23
2023-08-11T01:49:52.822Z,52.36
2023-08-11T01:52:20.930Z,52.78
2023-08-11T01:54:47.829Z,52.06
2023-08-11T01:57:15.126Z,52.55
2023-08-11T01:59:42.178Z,53.58
2023-08-11T02:02:09.817Z,53.06
2023-08-11T02:04:36.747Z,53.84
2023-08-11T02:07:03.657Z,52.52
2023-08-11T02:09:30.566Z,52.27
2023-08-11T02:11:57.363Z,52.41
2023-08-11T02:14:24.194Z,53.31
2023-08-11T02:16:51.101Z,52.77
2023-08-11T02:19:17.995Z,52.80
2023-08-11T02:21:45.310Z,53.21
2023-08-11T02:24:12.174Z,52.89
2023-08-11T02:26:39.004Z,52.07
2023-08-11T02:29:05.818Z,52.24
2023-08-11T02:31:34.172Z,52.87
2023-08-11T02:34:01.558Z,52.60
2023-08-11T02:36:28.459Z,53.05
2023-08-11T02:38:56.116Z,53.33
2023-08-11T02:41:22.950Z,53.32
2023-08-11T02:43:49.812Z,53.59
2023-08-11T02:46:16.810Z,53.95
2023-08-11T02:48:44.408Z,53.26
2023-08-11T02:51:11.254Z,53.44
2023-08-11T02:53:38.278Z,53.20
2023-08-11T02:56:07.942Z,53.59
2023-08-11T02:58:34.980Z,53.02
2023-08-11T03:01:02.457Z,53.42
2023-08-11T03:03:30.026Z,53.02
2023-08-11T03:05:58.364Z,52.93
2023-08-11T03:08:25.916Z,53.19
2023-08-11T03:10:57.169Z,53.14
2023-08-11T03:13:30.545Z,53.17
2023-08-11T03:16:00.017Z,53.16
2023-08-11T03:18:27.765Z,52.90
2023-08-11T03:21:00.624Z,53.05
2023-08-11T03:23:37.999Z,53.66
2023-08-11T03:26:05.685Z,53.50
2023-08-11T03:28:33.504Z,53.35
2023-08-11T03:31:00.826Z,53.49
2023-08-11T03:33:28.186Z,53.70
2023-08-11T03:36:03.999Z,53.65
2023-08-11T03:38:31.288Z,53.70
2023-08-11T03:40:58.174Z,53.82
2023-08-11T03:43:25.014Z,53.97
2023-08-11T03:45:52.965Z,54.42
2023-08-11T03:48:20.182Z,53.90
2023-08-11T03:50:47.128Z,53.92
2023-08-11T03:53:15.357Z,54.36
2023-08-11T03:55:46.968Z,54.82
2023-08-11T03:58:16.326Z,54.38
2023-08-11T04:00:45.082Z,54.22
2023-08-11T04:03:14.143Z,54.24
2023-08-11T04:05:41.086Z,54.44
2023-08-11T04:08:08.411Z,54.33
2023-08-11T04:10:36.401Z,54.25
2023-08-11T04:13:03.374Z,54.46
2023-08-11T04:15:32.473Z,54.39
2023-08-11T04:17:59.429Z,54.43
2023-08-11T04:20:26.507Z,54.63
2023-08-11T04:22:53.354Z,54.76
2023-08-11T04:25:20.279Z,54.88
2023-08-11T04:27:48.800Z,54.81
2023-08-11T04:30:15.995Z,54.85
2023-08-11T04:32:46.099Z,54.70
2023-08-11T04:35:13.968Z,55.08
2023-08-11T04:37:42.583Z,54.88
2023-08-11T04:40:12.327Z,55.14
2023-08-11T04:42:41.907Z,55.27
2023-08-11T04:45:11.853Z,55.27
2023-08-11T04:47:40.313Z,55.10
2023-08-11T04:50:09.503Z,55.39
2023-08-11T04:52:36.703Z,55.69
2023-08-11T04:55:04.615Z,55.35
2023-08-11T04:57:31.501Z,55.47
2023-08-11T04:59:59.899Z,55.60
2023-08-11T05:02:26.904Z,55.37
2023-08-11T05:04:54.170Z,55.53
2023-08-11T05:07:21.826Z,55.48
2023-08-11T05:09:49.113Z,55.43
2023-08-11T05:12:17.520Z,55.44
2023-08-11T05:14:44.462Z,55.52
2023-08-11T05:17:11.759Z,55.42
2023-08-11T05:19:38.892Z,55.41
2023-08-11T05:22:05.903Z,55.92
2023-08-11T05:24:32.808Z,55.93
2023-08-11T05:26:59.594Z,55.92
2023-08-11T05:29:27.307Z,56.27
2023-08-11T05:31:54.106Z,56.32
2023-08-11T05:34:21.028Z,56.52
2023-08-11T05:36:47.909Z,56.24
2023-08-11T05:39:14.825Z,56.27
2023-08-11T05:41:42.595Z,56.31
2023-08-11T05:44:09.711Z,55.98
2023-08-11T05:46:36.839Z,56.15
2023-08-11T05:49:04.241Z,55.96
2023-08-11T05:51:31.123Z,55.86
2023-08-11T05:53:58.082Z,55.87
2023-08-11T05:56:24.926Z,55.81
2023-08-11T05:58:51.658Z,55.76
2023-08-11T06:01:18.489Z,55.50
2023-08-11T06:03:45.543Z,55.37
2023-08-11T06:06:12.370Z,55.36
2023-08-11T06:08:39.319Z,55.68
2023-08-11T06:11:06.145Z,55.68
2023-08-11T06:13:32.979Z,55.76
2023-08-11T06:15:59.843Z,55.66
2023-08-11T06:18:26.877Z,55.67
2023-08-11T06:20:54.367Z,55.69
2023-08-11T06:23:21.383Z,55.23
2023-08-11T06:25:48.267Z,55.21
2023-08-11T06:28:15.507Z,54.94
2023-08-11T06:30:42.402Z,54.91
2023-08-11T06:33:09.355Z,54.74
2023-08-11T06:35:36.333Z,54.63
2023-08-11T06:38:03.497Z,54.45
2023-08-11T06:40:30.970Z,54.07
2023-08-11T06:42:57.918Z,54.26
2023-08-11T06:45:24.866Z,54.07
2023-08-11T06:47:52.788Z,53.87
2023-08-11T06:50:20.151Z,53.50
2023-08-11T06:52:46.983Z,52.76
2023-08-11T06:55:13.784Z,52.66
2023-08-11T06:57:40.700Z,52.17
2023-08-11T07:00:11.224Z,51.87
2023-08-11T07:02:38.108Z,51.63
2023-08-11T07:05:05.556Z,51.34
2023-08-11T07:07:32.579Z,51.45
2023-08-11T07:10:03.395Z,50.95
2023-08-11T07:12:31.000Z,50.84
2023-08-11T07:14:57.837Z,50.37
2023-08-11T07:17:25.439Z,49.90
2023-08-11T07:19:52.365Z,49.80
2023-08-11T07:22:19.253Z,49.53
2023-08-11T07:24:46.082Z,49.51
2023-08-11T07:27:12.909Z,49.22
2023-08-11T07:29:39.850Z,48.90
2023-08-11T07:32:06.969Z,48.65
2023-08-11T07:34:33.891Z,48.38
2023-08-11T07:37:00.716Z,48.17
2023-08-11T07:39:27.534Z,48.35
2023-08-11T07:41:54.462Z,47.62
2023-08-11T07:44:21.365Z,48.28
2023-08-11T07:46:48.340Z,48.47
2023-08-11T07:49:15.219Z,48.61
2023-08-11T07:51:42.525Z,48.55
2023-08-11T07:54:09.943Z,48.78
2023-08-11T07:56:36.957Z,47.47
2023-08-11T07:59:04.005Z,48.79
2023-08-11T08:01:31.005Z,47.17
2023-08-11T08:03:58.009Z,46.42
2023-08-11T08:06:25.227Z,47.50
2023-08-11T08:08:52.161Z,46.05
2023-08-11T08:11:19.385Z,45.42
2023-08-11T08:13:46.363Z,45.17
2023-08-11T08:16:13.539Z,45.09
2023-08-11T08:18:40.370Z,44.82
2023-08-11T08:21:07.280Z,44.51
2023-08-11T08:23:34.131Z,43.68
2023-08-11T08:26:01.002Z,43.59
2023-08-11T08:28:27.852Z,42.87
2023-08-11T08:30:54.686Z,42.90
2023-08-11T08:33:21.666Z,43.16
2023-08-11T08:35:48.618Z,41.98
2023-08-11T08:38:15.896Z,41.30
2023-08-11T08:40:42.961Z,41.72
2023-08-11T08:43:10.066Z,42.13
2023-08-11T08:45:38.748Z,42.52
2023-08-11T08:48:12.795Z,41.05
2023-08-11T08:50:40.124Z,40.84
2023-08-11T08:53:06.982Z,40.16
2023-08-11T08:55:34.651Z,40.24
2023-08-11T08:58:02.070Z,40.83
2023-08-11T09:00:29.397Z,40.55
2023-08-11T09:02:58.942Z,41.47
2023-08-11T09:05:26.785Z,41.79
2023-08-11T09:07:53.917Z,41.62
2023-08-11T09:10:21.685Z,41.64
2023-08-11T09:12:49.773Z,42.22
2023-08-11T09:15:16.623Z,42.19
2023-08-11T09:17:43.630Z,42.35
2023-08-11T09:20:13.730Z,42.54
2023-08-11T09:22:41.480Z,42.90
2023-08-11T09:25:09.046Z,43.02
2023-08-11T09:27:35.940Z,42.87
2023-08-11T09:30:03.585Z,43.03
2023-08-11T09:32:34.356Z,43.03
2023-08-11T09:35:25.016Z,43.02
2023-08-11T09:37:56.031Z,42.86
2023-08-11T09:40:25.696Z,42.90
2023-08-11T09:42:56.441Z,43.31
2023-08-11T09:45:26.829Z,43.46
2023-08-11T09:47:53.759Z,43.16
2023-08-11T09:50:22.106Z,42.84
2023-08-11T09:52:49.679Z,43.49
2023-08-11T09:55:17.544Z,43.44
2023-08-11T09:57:45.344Z,42.98
2023-08-11T10:00:13.903Z,43.58
2023-08-11T10:03:00.376Z,43.71
2023-08-11T10:05:30.859Z,44.74
2023-08-11T10:08:00.084Z,44.48
2023-08-11T10:10:28.474Z,44.37
2023-08-11T10:13:23.316Z,44.58
2023-08-11T10:15:52.993Z,44.35
2023-08-11T10:18:24.928Z,45.36
2023-08-11T10:20:52.894Z,45.47
2023-08-11T10:23:20.394Z,45.69
2023-08-11T10:25:48.624Z,45.21
2023-08-11T10:28:18.129Z,45.77
2023-08-11T10:30:45.009Z,46.71
2023-08-11T10:33:12.262Z,48.02
